createdAt,value
2017-10-02T00:00:01.780Z,79.00
2017-10-02T00:02:31.028Z,79.20
2017-10-02T00:05:00.291Z,79.30
2017-10-02T00:07:29.591Z,79.40
2017-10-02T00:09:58.799Z,79.40
2017-10-02T00:12:28.063Z,79.50
2017-10-02T00:14:57.304Z,79.40
2017-10-02T00:17:27.338Z,80.40
2017-10-02T00:19:57.363Z,79.30
2017-10-02T00:22:27.396Z,79.50
2017-10-02T00:24:56.684Z,79.50
2017-10-02T00:27:25.932Z,79.50
2017-10-02T00:29:55.164Z,79.80
2017-10-02T00:32:25.200Z,79.70
2017-10-02T00:34:54.448Z,79.70
2017-10-02T00:37:23.686Z,79.60
2017-10-02T00:39:53.733Z,79.70
2017-10-02T00:42:22.976Z,79.60
2017-10-02T00:44:52.227Z,79.90
2017-10-02T00:47:21.500Z,80.10
2017-10-02T00:49:51.495Z,80.00
2017-10-02T00:52:20.777Z,80.00
2017-10-02T00:54:50.015Z,79.80
2017-10-02T00:57:20.041Z,80.00
2017-10-02T00:59:49.343Z,80.00
2017-10-02T01:05:33.368Z,80.50
2017-10-02T01:08:02.644Z,80.50
2017-10-02T01:10:31.894Z,80.80
2017-10-02T01:13:01.164Z,81.00
2017-10-02T01:15:30.412Z,80.90
2017-10-02T01:17:59.664Z,80.90
2017-10-02T01:20:28.960Z,80.80
2017-10-02T01:22:58.216Z,80.80
2017-10-02T01:25:27.479Z,81.20
2017-10-02T01:27:56.784Z,81.50
2017-10-02T01:30:26.063Z,81.50
2017-10-02T01:32:55.323Z,81.50
2017-10-02T01:35:25.392Z,81.10
2017-10-02T01:37:54.674Z,81.00
2017-10-02T01:40:23.943Z,81.00
2017-10-02T01:42:53.170Z,80.90
2017-10-02T01:45:22.459Z,81.00
2017-10-02T01:47:51.713Z,81.10
2017-10-02T01:50:20.972Z,81.00
2017-10-02T01:52:50.365Z,81.30
2017-10-02T01:55:20.359Z,82.10
2017-10-02T01:57:50.415Z,81.60
2017-10-02T02:00:19.663Z,82.30
2017-10-02T02:02:48.979Z,81.40
2017-10-02T02:05:19.087Z,80.80
2017-10-02T02:07:48.382Z,80.70
2017-10-02T02:10:17.634Z,80.50
2017-10-02T02:12:46.900Z,80.40
2017-10-02T02:15:16.921Z,80.10
2017-10-02T02:17:46.971Z,80.20
2017-10-02T02:20:16.223Z,80.10
2017-10-02T02:22:47.164Z,79.60
2017-10-02T02:25:16.425Z,79.70
2017-10-02T02:27:45.688Z,79.70
2017-10-02T02:30:15.000Z,80.50
2017-10-02T02:32:44.263Z,79.80
2017-10-02T02:35:13.520Z,80.00
2017-10-02T02:37:42.799Z,80.00
2017-10-02T02:40:12.054Z,80.10
2017-10-02T02:42:41.347Z,79.80
2017-10-02T02:45:10.595Z,79.70
2017-10-02T02:47:39.851Z,79.60
2017-10-02T02:50:09.148Z,79.70
2017-10-02T02:52:38.404Z,79.60
2017-10-02T02:55:07.651Z,80.00
2017-10-02T02:57:36.921Z,79.80
2017-10-02T03:00:06.170Z,79.70
2017-10-02T03:02:36.242Z,79.70
2017-10-02T03:05:05.503Z,79.60
2017-10-02T03:07:34.754Z,79.60
2017-10-02T03:10:04.044Z,79.80
2017-10-02T03:12:33.296Z,80.10
2017-10-02T03:15:02.547Z,80.00
2017-10-02T03:17:31.858Z,80.20
2017-10-02T03:20:01.165Z,80.30
2017-10-02T03:22:30.411Z,80.50
2017-10-02T03:25:00.460Z,80.40
2017-10-02T03:27:29.706Z,80.40
2017-10-02T03:29:58.953Z,80.30
2017-10-02T03:32:28.238Z,80.60
2017-10-02T03:34:57.511Z,80.70
2017-10-02T03:37:27.569Z,80.20
2017-10-02T03:39:56.817Z,80.10
2017-10-02T03:42:26.074Z,79.80
2017-10-02T03:44:56.142Z,80.10
2017-10-02T03:47:25.498Z,80.10
2017-10-02T03:49:54.743Z,80.10
2017-10-02T03:52:24.037Z,79.80
2017-10-02T03:54:53.297Z,79.80
2017-10-02T03:57:22.551Z,80.30
2017-10-02T03:59:51.857Z,80.50
2017-10-02T04:02:21.874Z,80.70
2017-10-02T04:04:51.942Z,81.00
2017-10-02T04:07:21.221Z,80.90
2017-10-02T04:09:51.228Z,81.70
2017-10-02T04:12:20.510Z,81.70
2017-10-02T04:14:49.767Z,81.50
2017-10-02T04:17:19.019Z,81.60
2017-10-02T04:19:48.339Z,81.40
2017-10-02T04:22:17.586Z,81.50
2017-10-02T04:24:46.891Z,81.50
2017-10-02T04:27:16.764Z,81.50
2017-10-02T04:29:46.034Z,80.80
2017-10-02T04:32:15.322Z,80.80
2017-10-02T04:34:44.590Z,81.10
2017-10-02T04:37:13.879Z,81.30
2017-10-02T04:39:43.144Z,81.40
2017-10-02T04:42:12.397Z,81.80
2017-10-02T04:44:41.676Z,81.80
2017-10-02T04:47:11.067Z,81.80
2017-10-02T04:49:40.306Z,81.80
2017-10-02T04:52:09.575Z,81.70
2017-10-02T04:54:38.837Z,81.90
2017-10-02T04:57:08.866Z,82.00
2017-10-02T04:59:38.136Z,82.00
2017-10-02T05:02:07.388Z,82.10
2017-10-02T05:04:37.135Z,82.80
2017-10-02T05:07:06.390Z,82.00
2017-10-02T05:09:35.644Z,82.10
2017-10-02T05:12:04.945Z,82.00
2017-10-02T05:14:34.201Z,82.30
2017-10-02T05:17:03.457Z,82.40
2017-10-02T05:19:32.747Z,82.20
2017-10-02T05:22:01.995Z,82.00
2017-10-02T05:24:31.251Z,81.70
2017-10-02T05:27:00.570Z,81.50
2017-10-02T05:29:29.826Z,81.30
2017-10-02T05:31:59.095Z,81.00
2017-10-02T05:34:28.375Z,80.80
2017-10-02T05:36:57.642Z,80.80
2017-10-02T05:39:26.949Z,80.60
2017-10-02T05:41:56.204Z,80.60
2017-10-02T05:44:25.471Z,80.60
2017-10-02T05:46:55.513Z,80.60
2017-10-02T05:49:24.771Z,80.70
2017-10-02T05:51:54.035Z,80.70
2017-10-02T05:54:23.336Z,79.90
2017-10-02T05:56:52.632Z,79.10
2017-10-02T05:59:21.891Z,78.10
2017-10-02T06:01:51.192Z,77.70
2017-10-02T06:04:20.541Z,77.60
2017-10-02T06:06:50.398Z,77.60
2017-10-02T06:09:19.667Z,77.50
2017-10-02T06:11:52.498Z,77.80
2017-10-02T06:14:21.780Z,77.60
2017-10-02T06:16:51.044Z,77.40
2017-10-02T06:19:20.333Z,77.50
2017-10-02T06:21:49.742Z,77.80
2017-10-02T06:24:18.991Z,78.20
2017-10-02T06:26:49.512Z,77.90
2017-10-02T06:29:18.835Z,77.90
2017-10-02T06:31:48.184Z,77.40
2017-10-02T06:34:17.443Z,77.90
2017-10-02T06:36:46.712Z,77.50
2017-10-02T06:39:15.999Z,77.80
2017-10-02T06:41:45.295Z,78.10
2017-10-02T06:44:14.551Z,78.10
2017-10-02T06:46:43.860Z,78.50
2017-10-02T06:49:14.023Z,78.30
2017-10-02T06:51:43.298Z,78.20
2017-10-02T06:54:12.584Z,78.40
2017-10-02T06:56:41.839Z,78.20
2017-10-02T06:59:11.879Z,78.60
2017-10-02T07:01:41.150Z,78.60
2017-10-02T07:04:10.442Z,78.40
2017-10-02T07:06:39.693Z,78.10
2017-10-02T07:09:08.939Z,78.00
2017-10-02T07:11:38.221Z,77.90
2017-10-02T07:14:07.520Z,77.60
2017-10-02T07:16:36.747Z,76.90
2017-10-02T07:19:06.044Z,76.90
2017-10-02T07:21:35.285Z,76.70
2017-10-02T07:24:04.520Z,76.30
2017-10-02T07:26:33.779Z,76.00
2017-10-02T07:29:03.049Z,76.00
2017-10-02T07:31:32.288Z,76.30
2017-10-02T07:34:01.578Z,75.80
2017-10-02T07:36:30.826Z,75.30
2017-10-02T07:39:00.062Z,75.30
2017-10-02T07:41:29.336Z,75.30
2017-10-02T07:43:58.598Z,75.70
2017-10-02T07:46:28.039Z,76.00
2017-10-02T07:48:57.279Z,76.30
2017-10-02T07:51:27.673Z,76.70
2017-10-02T07:53:56.960Z,76.90
2017-10-02T07:56:26.199Z,77.20
2017-10-02T07:58:55.458Z,77.60
2017-10-02T08:01:24.706Z,77.60
2017-10-02T08:03:56.204Z,77.70
2017-10-02T08:06:26.417Z,77.70
2017-10-02T08:08:55.921Z,77.80
2017-10-02T08:11:25.168Z,77.80
2017-10-02T08:13:54.400Z,77.60
2017-10-02T08:16:23.666Z,76.80
2017-10-02T08:18:52.926Z,76.80
2017-10-02T08:21:22.211Z,77.00
2017-10-02T08:23:52.409Z,77.20
2017-10-02T08:26:21.679Z,75.70
2017-10-02T08:28:50.947Z,76.10
2017-10-02T08:31:20.188Z,74.40
2017-10-02T08:33:50.362Z,75.00
2017-10-02T08:36:19.893Z,75.00
2017-10-02T08:38:49.993Z,74.40
2017-10-02T08:41:19.250Z,73.40
2017-10-02T08:43:49.439Z,72.90
2017-10-02T08:46:18.708Z,73.10
2017-10-02T08:48:48.176Z,72.70
2017-10-02T08:51:17.453Z,73.60
2017-10-02T08:53:47.601Z,72.80
2017-10-02T08:56:17.639Z,72.90
2017-10-02T08:58:46.891Z,72.90
2017-10-02T09:01:16.215Z,73.40
2017-10-02T09:03:47.046Z,72.90
2017-10-02T09:06:18.335Z,72.50
2017-10-02T09:08:47.744Z,72.30
2017-10-02T09:11:17.921Z,70.80
2017-10-02T09:13:49.224Z,74.00
2017-10-02T09:16:19.615Z,74.00
2017-10-02T09:18:49.145Z,72.50
2017-10-02T09:21:18.573Z,71.50
2017-10-02T09:23:49.448Z,71.50
2017-10-02T09:26:18.732Z,70.50
2017-10-02T09:28:48.085Z,69.70
2017-10-02T09:31:18.900Z,68.60
2017-10-02T09:33:48.456Z,68.80
2017-10-02T09:36:17.912Z,67.40
2017-10-02T09:38:47.266Z,67.90
2017-10-02T09:41:16.514Z,68.10
2017-10-02T09:43:46.515Z,68.60
2017-10-02T09:46:16.799Z,70.30
2017-10-02T09:48:49.131Z,71.50
2017-10-02T09:51:18.437Z,71.50
2017-10-02T09:53:47.718Z,71.20
2017-10-02T09:56:17.730Z,73.10
2017-10-02T09:58:47.786Z,72.90
2017-10-02T10:01:17.039Z,72.80
2017-10-02T10:03:47.062Z,74.30
2017-10-02T10:06:17.082Z,73.60
2017-10-02T10:08:47.158Z,74.30
2017-10-02T10:11:16.418Z,74.30
2017-10-02T10:13:45.676Z,74.80
2017-10-02T10:16:14.949Z,73.50
2017-10-02T10:18:44.198Z,74.00
2017-10-02T10:21:13.652Z,74.20
2017-10-02T10:23:43.074Z,73.50
2017-10-02T10:26:12.343Z,74.50
2017-10-02T10:28:42.351Z,74.60
2017-10-02T10:31:11.596Z,74.60
2017-10-02T10:33:40.861Z,74.50
2017-10-02T10:36:10.116Z,74.60
2017-10-02T10:38:40.134Z,74.30
2017-10-02T10:41:09.371Z,74.20
2017-10-02T10:43:38.618Z,73.10
2017-10-02T10:46:07.951Z,74.00
2017-10-02T10:48:37.967Z,73.40
2017-10-02T10:51:09.680Z,74.10
2017-10-02T10:53:39.819Z,74.10
2017-10-02T10:56:09.076Z,74.10
2017-10-02T10:58:38.391Z,73.70
2017-10-02T11:01:08.371Z,74.10
2017-10-02T11:03:37.686Z,74.40
2017-10-02T11:06:07.110Z,74.80
2017-10-02T11:08:37.134Z,73.50
2017-10-02T11:11:06.564Z,73.50
2017-10-02T11:13:35.771Z,73.80
2017-10-02T11:16:05.843Z,73.30
2017-10-02T11:18:35.435Z,73.30
2017-10-02T11:21:05.828Z,73.90
2017-10-02T11:23:35.108Z,74.10
2017-10-02T11:26:04.370Z,74.40
2017-10-02T11:28:33.690Z,73.20
2017-10-02T11:31:03.624Z,73.20
2017-10-02T11:33:33.789Z,72.70
2017-10-02T11:36:03.087Z,72.70
2017-10-02T11:38:33.107Z,72.50
2017-10-02T11:41:02.445Z,72.50
2017-10-02T11:43:31.663Z,72.40
2017-10-02T11:46:00.961Z,71.00
2017-10-02T11:48:30.212Z,71.00
2017-10-02T11:50:59.459Z,72.20
2017-10-02T11:53:28.722Z,71.20
2017-10-02T11:55:57.974Z,71.70
2017-10-02T11:58:27.222Z,72.70
2017-10-02T12:00:56.485Z,72.30
2017-10-02T12:03:26.544Z,71.60
2017-10-02T12:05:55.828Z,71.60
2017-10-02T12:08:25.092Z,71.80
2017-10-02T12:10:54.347Z,71.40
2017-10-02T12:13:23.594Z,72.90
2017-10-02T12:15:52.855Z,71.90
2017-10-02T12:18:24.113Z,72.20
2017-10-02T12:20:54.167Z,72.60
2017-10-02T12:23:23.461Z,72.60
2017-10-02T12:25:53.799Z,72.50
2017-10-02T12:28:23.785Z,72.00
2017-10-02T12:30:53.787Z,71.50
2017-10-02T12:33:23.038Z,71.50
2017-10-02T12:35:52.343Z,71.20
2017-10-02T12:38:21.583Z,71.20
2017-10-02T12:40:50.878Z,70.70
2017-10-02T12:43:20.124Z,71.50
2017-10-02T12:45:49.405Z,71.50
2017-10-02T12:48:19.250Z,71.70
2017-10-02T12:50:48.811Z,71.40
2017-10-02T12:53:18.168Z,72.10
2017-10-02T12:55:47.495Z,72.20
2017-10-02T12:58:17.647Z,72.40
2017-10-02T13:00:46.935Z,72.40
2017-10-02T13:03:17.031Z,71.80
2017-10-02T13:05:47.482Z,71.80
2017-10-02T13:08:17.267Z,71.90
2017-10-02T13:10:46.745Z,72.00
2017-10-02T13:13:17.943Z,71.90
2017-10-02T13:15:48.231Z,72.00
2017-10-02T13:18:17.648Z,72.30
2017-10-02T13:20:48.658Z,72.20
2017-10-02T13:23:17.922Z,72.20
2017-10-02T13:25:47.959Z,72.20
2017-10-02T13:28:17.193Z,72.10
2017-10-02T13:30:46.443Z,72.30
2017-10-02T13:33:16.474Z,72.60
2017-10-02T13:35:45.713Z,72.60
2017-10-02T13:38:14.948Z,71.90
2017-10-02T13:40:44.980Z,72.70
2017-10-02T13:43:14.239Z,72.70
2017-10-02T13:45:43.489Z,72.60
2017-10-02T13:48:12.770Z,72.80
2017-10-02T13:50:42.819Z,73.00
2017-10-02T13:53:13.023Z,73.20
2017-10-02T13:55:43.059Z,73.20
2017-10-02T13:58:12.304Z,73.20
2017-10-02T14:00:41.596Z,73.30
2017-10-02T14:03:10.930Z,73.10
2017-10-02T14:05:40.940Z,74.60
2017-10-02T14:08:10.251Z,74.50
2017-10-02T14:10:40.250Z,77.20
2017-10-02T14:13:09.515Z,76.40
2017-10-02T14:15:39.534Z,77.40
2017-10-02T14:18:08.777Z,77.40
2017-10-02T14:20:38.214Z,78.00
2017-10-02T14:23:07.530Z,77.40
2017-10-02T14:25:37.510Z,77.60
2017-10-02T14:28:07.512Z,77.40
2017-10-02T14:30:37.607Z,77.50
2017-10-02T14:33:06.856Z,77.50
2017-10-02T14:35:39.190Z,77.70
2017-10-02T14:38:08.448Z,77.70
2017-10-02T14:40:37.709Z,77.90
2017-10-02T14:43:07.088Z,78.30
2017-10-02T14:45:36.315Z,78.20
2017-10-02T14:48:06.468Z,79.40
2017-10-02T14:50:35.792Z,79.40
2017-10-02T14:53:05.004Z,79.90
2017-10-02T14:55:34.302Z,79.40
2017-10-02T14:58:04.131Z,79.20
2017-10-02T15:00:33.635Z,79.10
2017-10-02T15:03:03.229Z,78.70
2017-10-02T15:05:32.690Z,78.90
2017-10-02T15:08:02.730Z,78.90
2017-10-02T15:10:31.976Z,78.80
2017-10-02T15:13:01.275Z,78.90
2017-10-02T15:15:30.546Z,79.80
2017-10-02T15:17:59.880Z,79.00
2017-10-02T15:20:29.087Z,79.10
2017-10-02T15:22:59.132Z,80.00
2017-10-02T15:25:28.391Z,79.20
2017-10-02T15:27:57.655Z,79.60
2017-10-02T15:30:26.948Z,79.20
2017-10-02T15:32:56.283Z,79.80
2017-10-02T15:35:25.518Z,79.00
2017-10-02T15:37:55.620Z,77.90
2017-10-02T15:40:24.852Z,77.80
2017-10-02T15:42:54.124Z,77.20
2017-10-02T15:45:24.152Z,76.00
2017-10-02T15:47:54.171Z,76.90
2017-10-02T15:50:23.441Z,77.70
2017-10-02T15:52:52.721Z,76.30
2017-10-02T15:55:21.959Z,76.10
2017-10-02T15:57:51.221Z,76.40
2017-10-02T16:00:20.462Z,76.70
2017-10-02T16:02:49.742Z,75.80
2017-10-02T16:05:18.973Z,75.80
2017-10-02T16:07:48.999Z,75.80
2017-10-02T16:10:18.275Z,75.60
2017-10-02T16:24:09.992Z,76.10
2017-10-02T16:26:39.271Z,77.10
2017-10-02T16:29:08.532Z,78.10
2017-10-02T16:31:37.791Z,79.30
2017-10-02T16:34:07.815Z,79.80
2017-10-02T16:36:37.818Z,78.50
2017-10-02T16:39:07.112Z,78.40
2017-10-02T16:41:36.459Z,79.00
2017-10-02T16:44:05.692Z,79.20
2017-10-02T16:46:34.952Z,78.90
2017-10-02T16:49:04.199Z,79.30
2017-10-02T16:51:33.431Z,79.70
2017-10-02T16:54:02.702Z,79.20
2017-10-02T16:56:31.923Z,79.20
2017-10-02T16:59:01.320Z,79.40
2017-10-02T17:01:30.551Z,79.70
2017-10-02T17:03:59.895Z,79.80
2017-10-02T17:06:29.126Z,79.30
2017-10-02T17:08:58.461Z,80.30
2017-10-02T17:11:27.723Z,80.30
2017-10-02T17:13:56.975Z,80.90
2017-10-02T17:16:26.258Z,80.70
2017-10-02T17:18:55.755Z,81.10
2017-10-02T17:21:25.032Z,81.20
2017-10-02T17:23:54.302Z,81.20
2017-10-02T17:26:23.575Z,81.30
2017-10-02T17:28:52.874Z,80.10
2017-10-02T17:31:22.123Z,80.80
2017-10-02T17:33:51.365Z,81.40
2017-10-02T17:36:20.669Z,81.40
2017-10-02T17:38:49.915Z,81.30
2017-10-02T17:41:19.155Z,81.00
2017-10-02T17:43:49.187Z,81.40
2017-10-02T17:46:18.425Z,81.40
2017-10-02T17:48:47.689Z,81.70
2017-10-02T17:51:16.951Z,82.00
2017-10-02T17:53:46.182Z,81.70
2017-10-02T17:56:15.483Z,81.90
2017-10-02T17:58:44.724Z,81.60
2017-10-02T18:01:14.788Z,81.60
2017-10-02T18:03:44.119Z,81.40
2017-10-02T18:06:13.362Z,81.30
2017-10-02T18:08:42.621Z,81.70
2017-10-02T18:11:12.062Z,81.80
2017-10-02T18:13:41.319Z,81.80
2017-10-02T18:16:10.554Z,82.60
2017-10-02T18:18:39.827Z,82.00
2017-10-02T18:21:09.860Z,82.10
2017-10-02T18:23:39.894Z,82.50
2017-10-02T18:26:09.139Z,82.50
2017-10-02T18:28:38.459Z,82.70
2017-10-02T18:31:07.714Z,82.80
2017-10-02T18:33:37.107Z,82.70
2017-10-02T18:36:06.436Z,82.60
2017-10-02T18:38:35.977Z,82.40
2017-10-02T18:41:06.204Z,82.60
2017-10-02T18:43:35.597Z,82.70
2017-10-02T18:46:07.669Z,82.20
2017-10-02T18:48:37.028Z,82.90
2017-10-02T18:51:06.556Z,82.70
2017-10-02T18:53:37.705Z,83.00
2017-10-02T18:56:07.696Z,82.50
2017-10-02T18:58:37.687Z,82.90
2017-10-02T19:01:08.256Z,82.50
2017-10-02T19:03:37.552Z,82.70
2017-10-02T19:06:06.888Z,82.80
2017-10-02T19:08:36.221Z,82.70
2017-10-02T19:11:06.241Z,82.60
2017-10-02T19:13:36.255Z,82.60
2017-10-02T19:16:05.572Z,82.80
2017-10-02T19:18:34.911Z,82.90
2017-10-02T19:21:04.238Z,82.50
2017-10-02T19:23:33.638Z,82.70
2017-10-02T19:26:03.820Z,82.70
2017-10-02T19:28:33.162Z,83.20
2017-10-02T19:31:02.440Z,83.20
2017-10-02T19:33:31.838Z,82.90
2017-10-02T19:36:01.149Z,82.40
2017-10-02T19:38:31.611Z,82.70
2017-10-02T19:41:01.983Z,82.90
2017-10-02T19:43:31.987Z,83.30
2017-10-02T19:46:01.305Z,83.30
2017-10-02T19:48:31.311Z,83.10
2017-10-02T19:51:00.569Z,83.00
2017-10-02T19:53:29.828Z,83.20
2017-10-02T19:55:59.087Z,83.00
2017-10-02T19:58:28.382Z,83.40
2017-10-02T20:00:57.656Z,83.30
2017-10-02T20:03:33.583Z,83.00
2017-10-02T20:06:02.817Z,83.20
2017-10-02T20:08:33.269Z,83.70
2017-10-02T20:11:02.568Z,83.80
2017-10-02T20:13:31.968Z,83.60
2017-10-02T20:18:38.745Z,83.80
2017-10-02T20:21:09.485Z,84.30
2017-10-02T20:23:39.617Z,84.30
2017-10-02T20:26:08.920Z,84.30
2017-10-02T20:28:39.019Z,84.30
2017-10-02T20:31:09.030Z,84.80
2017-10-02T20:33:38.347Z,84.90
2017-10-02T20:36:07.695Z,85.00
2017-10-02T20:38:37.039Z,86.10
2017-10-02T20:41:07.138Z,88.90
2017-10-02T20:43:36.460Z,88.90
2017-10-02T20:46:06.677Z,90.00
2017-10-02T20:48:36.115Z,90.60
2017-10-02T20:51:06.297Z,90.80
2017-10-02T20:53:36.304Z,90.60
2017-10-02T20:56:06.327Z,90.40
2017-10-02T20:58:39.813Z,90.40
2017-10-02T21:01:09.803Z,90.50
2017-10-02T21:03:39.055Z,90.30
2017-10-02T21:06:08.347Z,90.30
2017-10-02T21:08:37.722Z,90.10
2017-10-02T21:11:09.598Z,90.10
2017-10-02T21:13:39.247Z,90.00
2017-10-02T21:16:08.511Z,90.20
2017-10-02T21:18:38.657Z,90.10
2017-10-02T21:21:07.886Z,90.10
2017-10-02T21:23:37.138Z,90.20
2017-10-02T21:26:07.338Z,90.10
2017-10-02T21:28:37.547Z,90.10
2017-10-02T21:31:06.855Z,89.70
2017-10-02T21:33:36.130Z,89.80
2017-10-02T21:36:05.341Z,90.00
2017-10-02T21:38:34.663Z,90.20
2017-10-02T21:41:03.915Z,90.10
2017-10-02T21:43:33.164Z,90.10
2017-10-02T21:46:02.493Z,90.10
2017-10-02T21:48:31.775Z,89.90
2017-10-02T21:51:01.779Z,89.60
2017-10-02T21:53:31.035Z,89.60
2017-10-02T21:56:00.315Z,89.80
2017-10-02T21:58:30.339Z,89.90
2017-10-02T22:00:59.603Z,89.50
2017-10-02T22:03:29.638Z,89.70
2017-10-02T22:05:58.984Z,88.30
2017-10-02T22:08:28.255Z,88.30
2017-10-02T22:10:57.496Z,87.00
2017-10-02T22:13:26.811Z,87.00
2017-10-02T22:15:56.084Z,86.60
2017-10-02T22:18:25.960Z,87.20
2017-10-02T22:20:55.986Z,87.90
2017-10-02T22:23:25.823Z,87.70
2017-10-02T22:25:55.265Z,87.50
2017-10-02T22:28:24.502Z,87.20
2017-10-02T22:30:53.755Z,87.60
2017-10-02T22:33:23.015Z,87.30
2017-10-02T22:35:52.412Z,87.50
2017-10-02T22:38:21.642Z,88.30
2017-10-02T22:40:50.947Z,87.40
2017-10-02T22:43:20.187Z,87.40
2017-10-02T22:45:50.223Z,87.60
2017-10-02T22:48:19.502Z,87.40
2017-10-02T22:50:51.271Z,87.00
2017-10-02T22:53:20.508Z,87.00
2017-10-02T22:55:49.800Z,87.70
2017-10-02T22:58:19.039Z,87.60
2017-10-02T23:00:48.279Z,87.90
2017-10-02T23:03:17.568Z,87.70
2017-10-02T23:05:47.587Z,86.60
2017-10-02T23:08:17.789Z,86.90
2017-10-02T23:10:47.060Z,86.90
2017-10-02T23:13:17.275Z,87.20
2017-10-02T23:15:46.511Z,86.80
2017-10-02T23:18:15.744Z,86.60
2017-10-02T23:20:45.247Z,86.60
2017-10-02T23:23:14.700Z,86.70
2017-10-02T23:25:46.710Z,86.70
2017-10-02T23:28:16.141Z,86.60
2017-10-02T23:30:45.406Z,86.90
2017-10-02T23:33:15.456Z,86.70
2017-10-02T23:35:44.695Z,86.70
2017-10-02T23:38:13.942Z,86.80
2017-10-02T23:40:43.480Z,86.70
2017-10-02T23:43:12.727Z,86.80
2017-10-02T23:45:42.948Z,87.40
2017-10-02T23:48:12.187Z,87.40
2017-10-02T23:50:41.434Z,87.70
2017-10-02T23:53:10.876Z,87.90
2017-10-02T23:55:40.131Z,88.10
2017-10-02T23:58:09.362Z,88.10
